Time;durP1;ratioP1;P1;durP2;ratioP2;P2;SDS_P1;SDS_P2;PMS_P1;PMS_P2;Temp;Humidity;BMP_temperature;BMP_pressure;BME280_temperature;BME280_humidity;BME280_pressure;Samples;Min_cycle;Max_cycle;Signal;HPM_P1;HPM_P2
2021/01/23 00:00:00;;;;;;;8.57;7.87;;;;;;;2.52;79.65;98658.75;4976439;28;20228;-77
2021/01/23 00:02:26;;;;;;;8.20;7.40;;;;;;;2.58;78.76;98656.94;4975983;28;20306;-77
2021/01/23 00:04:51;;;;;;;8.37;7.37;;;;;;;2.58;78.48;98656.09;4985261;28;20215;-76
2021/01/23 00:07:17;;;;;;;7.07;6.30;;;;;;;2.55;78.67;98650.97;4977553;28;20204;-76
2021/01/23 00:09:43;;;;;;;6.80;6.30;;;;;;;2.46;78.67;98651.97;4982470;28;20259;-77
2021/01/23 00:12:10;;;;;;;9.57;6.40;;;;;;;2.44;79.25;98655.41;4980515;28;20247;-77
2021/01/23 00:14:36;;;;;;;6.90;6.20;;;;;;;2.30;79.29;98656.50;4980240;28;20200;-76
2021/01/23 00:17:02;;;;;;;6.83;6.23;;;;;;;2.32;79.19;98657.31;4979981;28;20721;-77
2021/01/23 00:19:27;;;;;;;6.77;6.13;;;;;;;2.27;79.04;98655.69;4986170;28;20713;-77
2021/01/23 00:21:53;;;;;;;6.60;6.00;;;;;;;2.25;79.21;98653.13;4980586;28;20200;-77
2021/01/23 00:24:19;;;;;;;6.83;6.10;;;;;;;2.30;79.65;98653.06;4982391;28;20203;-77
2021/01/23 00:26:45;;;;;;;7.37;6.73;;;;;;;2.35;79.73;98643.53;4980857;28;20283;-77
2021/01/23 00:29:13;;;;;;;8.77;7.87;;;;;;;2.45;79.13;98642.53;4984494;28;20227;-77
2021/01/23 00:31:39;;;;;;;8.80;7.43;;;;;;;2.48;79.86;98641.63;4986510;28;20200;-77
2021/01/23 00:34:05;;;;;;;11.17;8.30;;;;;;;2.45;79.79;98632.22;4982655;28;20662;-76
2021/01/23 00:36:31;;;;;;;8.60;7.80;;;;;;;2.48;80.27;98628.75;4986291;28;20224;-76
2021/01/23 00:38:57;;;;;;;13.93;8.50;;;;;;;2.49;79.61;98627.88;4984235;28;20773;-76
2021/01/23 00:41:22;;;;;;;8.87;7.97;;;;;;;2.52;79.37;98628.69;4990226;28;20593;-76
2021/01/23 00:43:48;;;;;;;8.90;8.03;;;;;;;2.48;79.95;98631.31;4984346;28;20675;-77
2021/01/23 00:46:15;;;;;;;8.60;7.80;;;;;;;2.55;79.62;98638.94;4988456;28;20192;-77
2021/01/23 00:48:41;;;;;;;9.40;8.57;;;;;;;2.59;79.23;98634.59;4988597;28;20230;-76
2021/01/23 00:51:07;;;;;;;10.23;8.50;;;;;;;2.58;79.53;98630.34;4987877;28;20268;-76
2021/01/23 00:53:32;;;;;;;9.37;8.37;;;;;;;2.64;79.91;98632.81;4995966;28;20218;-77
2021/01/23 00:55:58;;;;;;;13.00;10.40;;;;;;;2.57;80.40;98641.50;4989105;28;20642;-76
2021/01/23 00:58:24;;;;;;;12.67;9.37;;;;;;;2.55;80.21;98638.09;4992458;28;20305;-76
2021/01/23 01:00:50;;;;;;;13.97;10.77;;;;;;;2.58;80.81;98645.78;4982383;28;20732;-76
2021/01/23 01:03:16;;;;;;;10.03;9.00;;;;;;;2.69;80.59;98648.19;4986273;28;20208;-76
2021/01/23 01:05:42;;;;;;;10.77;9.77;;;;;;;2.65;79.84;98649.94;4992328;28;20203;-76
2021/01/23 01:08:08;;;;;;;10.90;9.90;;;;;;;2.75;79.90;98655.81;4984164;28;20227;-76
2021/01/23 01:10:34;;;;;;;12.20;10.80;;;;;;;2.66;79.67;98649.09;4993330;28;20235;-77
2021/01/23 01:13:00;;;;;;;10.27;9.40;;;;;;;2.66;80.37;98643.94;4982186;28;20200;-76
2021/01/23 01:15:26;;;;;;;10.07;9.17;;;;;;;2.64;80.14;98640.53;4979726;28;20207;-77
2021/01/23 01:17:52;;;;;;;10.23;9.23;;;;;;;2.71;79.27;98649.84;4983923;28;20212;-76
2021/01/23 01:20:18;;;;;;;9.80;8.90;;;;;;;2.59;79.04;98648.31;4995486;28;20207;-76
2021/01/23 01:22:44;;;;;;;8.83;8.03;;;;;;;2.56;79.08;98648.38;4983738;28;20830;-76
2021/01/23 01:25:10;;;;;;;8.67;7.97;;;;;;;2.50;79.98;98645.91;4996559;28;20254;-76
2021/01/23 01:27:36;;;;;;;9.77;8.87;;;;;;;2.45;80.09;98646.84;4992850;28;20646;-76
2021/01/23 01:30:03;;;;;;;8.67;7.87;;;;;;;2.45;79.75;98650.25;4995425;28;20247;-76
2021/01/23 01:32:29;;;;;;;8.63;7.60;;;;;;;2.42;79.66;98647.75;4988568;28;20211;-77
2021/01/23 01:34:54;;;;;;;9.20;8.27;;;;;;;2.41;80.56;98650.34;4994838;28;20207;-77
2021/01/23 01:37:21;;;;;;;8.67;7.77;;;;;;;2.44;80.08;98650.28;4983467;28;20220;-77
2021/01/23 01:39:47;;;;;;;8.80;7.90;;;;;;;2.49;80.72;98649.34;4991515;28;20297;-78
2021/01/23 01:42:13;;;;;;;9.17;8.37;;;;;;;2.58;80.18;98645.78;4991309;28;20834;-78
2021/01/23 01:44:39;;;;;;;9.60;8.80;;;;;;;2.62;80.79;98644.84;4995703;28;20669;-77
2021/01/23 01:47:05;;;;;;;9.10;8.30;;;;;;;2.59;80.02;98647.47;4991567;28;20275;-77
2021/01/23 01:49:31;;;;;;;8.97;8.17;;;;;;;2.59;79.95;98652.63;4995055;28;20223;-78
2021/01/23 01:51:57;;;;;;;9.67;8.70;;;;;;;2.63;79.08;98646.53;4993510;28;20210;-77
2021/01/23 01:54:25;;;;;;;9.83;8.83;;;;;;;2.54;79.22;98650.13;4993240;28;20203;-77
2021/01/23 01:56:51;;;;;;;10.73;9.73;;;;;;;2.58;78.89;98649.19;4994536;28;20672;-77
2021/01/23 01:59:17;;;;;;;10.17;9.20;;;;;;;2.63;79.22;98645.69;4992858;28;20219;-77
2021/01/23 02:01:42;;;;;;;10.67;9.67;;;;;;;2.66;79.39;98643.09;4995649;28;20257;-77
2021/01/23 02:04:18;;;;;;;10.40;9.40;;;;;;;2.66;78.48;98643.09;4992284;28;20249;-76
2021/01/23 02:07:00;;;;;;;13.57;10.20;;;;;;;2.59;78.76;98644.91;4974839;28;20200;-76
2021/01/23 02:09:38;;;;;;;14.33;11.73;;;;;;;2.47;78.71;98645.94;4988972;28;20232;-75
2021/01/23 02:12:11;;;;;;;11.77;10.60;;;;;;;2.48;79.12;98646.78;4976279;28;20215;-75
2021/01/23 02:14:48;;;;;;;11.10;10.00;;;;;;;2.45;79.46;98646.84;4988696;28;20212;-77
2021/01/23 02:17:17;;;;;;;10.87;9.77;;;;;;;2.41;79.84;98650.34;4975281;28;20271;-78
2021/01/23 02:20:04;;;;;;;11.30;10.20;;;;;;;2.30;80.58;98646.19;4990156;28;20254;-77
2021/01/23 02:22:44;;;;;;;11.20;10.20;;;;;;;2.31;80.26;98647.03;4989021;28;20203;-78
2021/01/23 02:25:11;;;;;;;10.43;9.37;;;;;;;2.30;80.17;98661.66;4991244;28;20208;-77
2021/01/23 02:27:48;;;;;;;9.80;8.90;;;;;;;2.28;79.97;98659.94;4978297;28;20204;-77
2021/01/23 02:30:18;;;;;;;9.47;8.57;;;;;;;2.32;80.24;98656.44;4994029;28;20207;-77
2021/01/23 02:32:48;;;;;;;10.57;9.50;;;;;;;2.33;79.92;98659.00;4981357;28;20205;-76
2021/01/23 02:35:16;;;;;;;10.13;9.17;;;;;;;2.30;80.18;98658.19;4984564;28;20623;-78
2021/01/23 02:37:43;;;;;;;10.27;9.27;;;;;;;2.26;80.58;98661.69;4976558;28;20235;-77
2021/01/23 02:40:09;;;;;;;10.00;9.00;;;;;;;2.33;80.67;98663.31;4978079;28;20255;-77
2021/01/23 02:42:35;;;;;;;10.17;8.00;;;;;;;2.33;80.08;98666.72;4974887;28;20210;-77
2021/01/23 02:45:01;;;;;;;9.20;8.33;;;;;;;2.28;81.06;98667.66;4978427;28;20212;-77
2021/01/23 02:47:27;;;;;;;9.17;8.37;;;;;;;2.28;81.12;98670.25;4976703;28;20753;-77
2021/01/23 02:49:54;;;;;;;8.40;7.70;;;;;;;2.24;81.69;98678.88;4977542;28;20228;-77
2021/01/23 02:52:25;;;;;;;9.00;8.20;;;;;;;2.26;81.29;98682.28;4975887;28;20204;-77
2021/01/23 02:54:56;;;;;;;10.17;8.90;;;;;;;2.24;81.45;98677.19;4978130;28;20209;-76
2021/01/23 02:57:24;;;;;;;11.60;10.07;;;;;;;2.28;81.25;98672.81;4979253;28;20741;-77
2021/01/23 02:59:56;;;;;;;12.87;10.40;;;;;;;2.36;81.10;98674.44;4978508;28;20239;-76
2021/01/23 03:02:23;;;;;;;10.77;9.67;;;;;;;2.40;81.07;98675.25;4984212;28;20697;-77
2021/01/23 03:04:50;;;;;;;10.77;9.70;;;;;;;2.49;81.57;98672.50;4978661;28;20208;-77
2021/01/23 03:07:17;;;;;;;11.57;9.97;;;;;;;2.56;80.80;98668.13;4979307;28;20197;-77
2021/01/23 03:09:43;;;;;;;12.90;9.73;;;;;;;2.52;81.04;98669.91;4981256;28;20258;-76
2021/01/23 03:12:10;;;;;;;10.87;9.87;;;;;;;2.56;81.24;98668.97;4986037;28;20680;-77
2021/01/23 03:14:36;;;;;;;12.90;9.77;;;;;;;2.58;81.29;98685.25;4980210;28;20726;-76
2021/01/23 03:17:03;;;;;;;12.17;9.87;;;;;;;2.58;81.45;98676.69;4978874;28;20224;-76
2021/01/23 03:19:30;;;;;;;10.47;9.57;;;;;;;2.61;81.36;98681.78;4978798;28;20631;-77
2021/01/23 03:21:56;;;;;;;10.87;9.80;;;;;;;2.60;81.33;98682.66;4984482;28;20202;-76
2021/01/23 03:24:22;;;;;;;11.67;9.90;;;;;;;2.59;80.55;98675.81;4987681;28;20223;-77
2021/01/23 03:26:52;;;;;;;10.13;9.13;;;;;;;2.59;80.54;98670.66;4980165;28;20204;-76
2021/01/23 03:29:19;;;;;;;9.80;8.90;;;;;;;2.59;80.57;98675.81;4983349;28;20228;-76
2021/01/23 03:31:46;;;;;;;9.90;9.00;;;;;;;2.53;80.73;98675.91;4976252;28;20203;-76
2021/01/23 03:34:12;;;;;;;10.77;9.73;;;;;;;2.53;80.51;98674.16;4979790;28;20222;-77
2021/01/23 03:36:38;;;;;;;9.80;8.80;;;;;;;2.46;80.74;98679.44;4980626;28;20595;-77
2021/01/23 03:39:05;;;;;;;14.23;9.90;;;;;;;2.48;81.16;98673.41;4979632;28;20262;-77
2021/01/23 03:41:32;;;;;;;10.83;9.83;;;;;;;2.56;81.41;98675.88;4977946;28;20587;-76
2021/01/23 03:43:58;;;;;;;11.03;9.63;;;;;;;2.58;80.68;98680.09;4983709;28;20215;-77
2021/01/23 03:46:24;;;;;;;16.23;11.30;;;;;;;2.59;80.31;98676.66;4983527;28;20206;-77
2021/01/23 03:48:50;;;;;;;12.37;11.13;;;;;;;2.65;80.39;98690.31;4986357;28;20315;-77
2021/01/23 03:51:16;;;;;;;13.23;10.73;;;;;;;2.64;80.02;98692.06;4984536;28;20200;-76
2021/01/23 03:53:42;;;;;;;14.47;10.77;;;;;;;2.58;80.43;98682.69;4982960;28;20260;-76
2021/01/23 03:56:08;;;;;;;12.07;11.07;;;;;;;2.66;80.55;98687.72;4983721;28;20224;-76
2021/01/23 03:58:34;;;;;;;14.70;11.17;;;;;;;2.68;80.23;98690.28;4981680;28;20227;-77
2021/01/23 04:01:00;;;;;;;13.00;11.03;;;;;;;2.70;79.77;98681.66;4986102;28;20204;-77
2021/01/23 04:03:26;;;;;;;11.37;10.33;;;;;;;2.65;79.69;98683.44;4989535;28;20224;-77
2021/01/23 04:05:52;;;;;;;12.07;10.87;;;;;;;2.59;79.52;98683.53;4986121;28;20216;-76
2021/01/23 04:08:18;;;;;;;16.57;12.00;;;;;;;2.33;79.35;98679.59;4987421;28;20274;-77
2021/01/23 04:10:44;;;;;;;12.27;11.17;;;;;;;2.09;80.19;98680.78;4991074;28;20290;-77
2021/01/23 04:13:10;;;;;;;13.03;11.83;;;;;;;2.12;79.95;98677.31;4983865;28;20219;-76
2021/01/23 04:15:37;;;;;;;13.53;11.97;;;;;;;2.12;80.39;98680.78;4993669;28;20199;-76
2021/01/23 04:18:03;;;;;;;12.43;11.23;;;;;;;2.14;80.89;98679.03;4983972;28;20223;-77
2021/01/23 04:20:29;;;;;;;13.47;12.33;;;;;;;2.11;80.78;98689.34;4990107;28;20223;-77
2021/01/23 04:22:55;;;;;;;13.73;11.97;;;;;;;2.15;80.37;98688.44;4983579;28;20741;-76
2021/01/23 04:25:21;;;;;;;14.97;12.43;;;;;;;2.05;81.32;98693.72;4995199;28;20681;-76
2021/01/23 04:27:47;;;;;;;14.60;13.03;;;;;;;1.89;81.12;98690.50;4985204;28;20693;-76
2021/01/23 04:30:14;;;;;;;15.93;13.43;;;;;;;1.54;82.66;98691.75;4995103;28;20245;-76
2021/01/23 04:32:40;;;;;;;14.30;13.00;;;;;;;1.43;83.63;98691.00;4985677;28;20196;-76
2021/01/23 04:35:09;;;;;;;15.70;13.80;;;;;;;1.35;84.28;98693.66;4987462;28;20204;-76
2021/01/23 04:37:36;;;;;;;14.97;13.37;;;;;;;1.48;84.16;98696.94;4986331;28;20220;-76
2021/01/23 04:40:02;;;;;;;14.80;13.40;;;;;;;1.61;83.63;98689.97;4993897;28;20236;-76
2021/01/23 04:42:27;;;;;;;16.43;13.17;;;;;;;1.70;83.44;98689.84;4987975;28;20367;-76
2021/01/23 04:44:53;;;;;;;16.17;14.47;;;;;;;1.66;82.64;98690.75;4993565;28;20214;-76
2021/01/23 04:47:19;;;;;;;15.73;14.10;;;;;;;1.68;83.57;98695.00;4989914;28;20200;-76
2021/01/23 04:49:46;;;;;;;17.80;14.03;;;;;;;1.63;83.61;98691.66;4994167;28;21011;-77
2021/01/23 04:52:14;;;;;;;15.13;13.53;;;;;;;1.73;83.36;98684.69;4990179;28;20208;-77
2021/01/23 04:54:43;;;;;;;22.93;15.03;;;;;;;1.74;82.56;98686.38;4997116;28;20212;-76
2021/01/23 04:57:09;;;;;;;16.07;14.37;;;;;;;1.63;83.78;98685.66;4992900;28;20215;-76
2021/01/23 04:59:35;;;;;;;15.10;13.70;;;;;;;1.72;83.25;98688.97;5000648;28;20585;-76
2021/01/23 05:02:16;;;;;;;14.80;13.40;;;;;;;1.78;83.05;98682.88;4992190;28;20211;-76
2021/01/23 05:04:47;;;;;;;15.50;13.93;;;;;;;1.83;82.46;98681.13;4994782;28;20654;-76
2021/01/23 05:07:27;;;;;;;15.53;13.93;;;;;;;1.89;83.05;98673.34;4991511;28;20208;-76
2021/01/23 05:09:54;;;;;;;15.33;13.00;;;;;;;1.93;82.57;98671.56;4996198;28;20235;-76
2021/01/23 05:12:37;;;;;;;15.27;12.87;;;;;;;2.01;82.65;98674.06;4990640;28;20528;-76
2021/01/23 05:15:06;;;;;;;14.87;13.37;;;;;;;2.12;81.87;98674.75;4998502;28;20208;-76
2021/01/23 05:17:31;;;;;;;14.47;13.10;;;;;;;2.16;81.77;98668.69;4988151;28;20235;-76
2021/01/23 05:19:58;;;;;;;16.17;13.17;;;;;;;2.24;81.81;98666.00;4987760;28;20236;-76
2021/01/23 05:22:25;;;;;;;13.43;12.13;;;;;;;2.20;81.98;98670.38;4987752;28;20215;-77
2021/01/23 05:24:52;;;;;;;13.90;12.50;;;;;;;2.21;81.53;98671.22;4998879;28;20203;-77
2021/01/23 05:27:19;;;;;;;14.23;12.97;;;;;;;2.17;82.04;98665.25;4986991;28;20200;-77
2021/01/23 05:30:03;;;;;;;13.93;12.63;;;;;;;2.23;80.91;98660.03;4993586;28;20232;-76
2021/01/23 05:32:28;;;;;;;13.90;12.57;;;;;;;2.26;81.80;98665.13;4979743;28;20677;-76
2021/01/23 05:34:54;;;;;;;15.60;13.30;;;;;;;2.27;81.24;98665.97;4992245;28;20211;-77
2021/01/23 05:37:32;;;;;;;14.53;13.10;;;;;;;2.29;81.79;98665.06;4979171;28;20231;-77
2021/01/23 05:39:57;;;;;;;15.40;14.00;;;;;;;2.27;81.45;98665.97;4984456;28;20219;-76
2021/01/23 05:42:23;;;;;;;15.23;13.73;;;;;;;2.28;81.50;98667.66;4978291;28;20239;-76
2021/01/23 05:45:10;;;;;;;16.60;14.07;;;;;;;2.28;81.62;98660.81;4979176;28;20211;-76
2021/01/23 05:47:37;;;;;;;14.13;12.73;;;;;;;2.28;81.11;98668.53;4977822;28;20212;-76
2021/01/23 05:50:04;;;;;;;16.37;13.67;;;;;;;2.30;81.46;98673.66;4981724;28;20255;-76
2021/01/23 05:52:31;;;;;;;16.33;12.67;;;;;;;2.29;81.74;98674.53;4981102;28;20278;-76
2021/01/23 05:54:57;;;;;;;14.07;12.67;;;;;;;2.30;81.05;98678.78;4987290;28;20201;-77
2021/01/23 05:57:24;;;;;;;14.73;13.27;;;;;;;2.32;81.07;98680.50;4981406;28;20221;-76
2021/01/23 05:59:51;;;;;;;14.60;12.23;;;;;;;2.33;81.02;98679.59;4984934;28;20255;-76
2021/01/23 06:02:19;;;;;;;13.70;11.90;;;;;;;2.31;81.03;98668.47;4984237;28;20279;-76
2021/01/23 06:04:51;;;;;;;14.40;12.93;;;;;;;2.36;81.09;98676.16;4984797;28;20258;-76
2021/01/23 06:07:46;;;;;;;13.37;12.23;;;;;;;2.36;81.34;98676.16;4982746;28;20200;-76
2021/01/23 06:10:34;;;;;;;13.77;12.37;;;;;;;2.34;80.67;98685.63;4984698;28;20785;-76
2021/01/23 06:13:02;;;;;;;12.97;11.57;;;;;;;2.31;81.18;98680.50;4980007;28;20215;-76
2021/01/23 06:15:36;;;;;;;16.53;11.63;;;;;;;2.27;81.48;98669.41;4983160;28;20211;-77
2021/01/23 06:18:04;;;;;;;12.53;11.23;;;;;;;2.28;81.63;98670.25;4982009;28;20227;-76
2021/01/23 06:20:50;;;;;;;13.83;12.43;;;;;;;2.35;80.90;98672.72;4984848;28;20262;-76
2021/01/23 06:23:17;;;;;;;12.43;11.33;;;;;;;2.30;81.02;98677.09;4984535;28;20199;-76
2021/01/23 06:25:59;;;;;;;16.83;11.07;;;;;;;2.31;81.15;98672.78;4983657;28;20243;-76
2021/01/23 06:28:48;;;;;;;13.83;12.00;;;;;;;2.31;81.61;98678.78;4985627;28;20230;-76
2021/01/23 06:31:33;;;;;;;11.77;10.33;;;;;;;2.32;81.05;98683.06;4984501;28;20208;-76
2021/01/23 06:34:01;;;;;;;15.33;12.37;;;;;;;2.30;81.74;98687.38;4984312;28;20282;-76
2021/01/23 06:36:29;;;;;;;13.13;11.90;;;;;;;2.36;81.13;98695.03;4979038;28;20220;-76
2021/01/23 06:39:09;;;;;;;14.97;13.43;;;;;;;2.36;81.16;98695.03;4979278;28;20227;-76
2021/01/23 06:41:37;;;;;;;13.10;11.87;;;;;;;2.40;81.15;98703.56;4981258;28;20212;-76
2021/01/23 06:44:17;;;;;;;11.93;10.97;;;;;;;2.40;81.34;98695.84;4985511;28;20208;-76
2021/01/23 06:46:55;;;;;;;12.17;11.07;;;;;;;2.43;81.89;98700.09;4985037;28;20211;-76
2021/01/23 06:49:21;;;;;;;12.07;11.07;;;;;;;2.41;81.59;98701.84;4980515;28;20278;-77
2021/01/23 06:51:47;;;;;;;12.20;10.83;;;;;;;2.37;81.70;98698.44;4981470;28;20814;-76
2021/01/23 06:54:15;;;;;;;12.97;11.57;;;;;;;2.39;81.52;98704.41;4985130;28;20261;-76
2021/01/23 06:56:42;;;;;;;13.57;12.27;;;;;;;2.42;81.25;98698.38;4982221;28;20216;-77
2021/01/23 06:59:20;;;;;;;12.53;11.23;;;;;;;2.42;81.82;98701.81;4985577;28;20715;-76
2021/01/23 07:01:46;;;;;;;12.80;11.50;;;;;;;2.43;81.07;98690.63;4985897;28;20229;-77
2021/01/23 07:04:12;;;;;;;13.40;11.77;;;;;;;2.47;80.96;98696.59;4985364;28;20208;-76
2021/01/23 07:06:37;;;;;;;15.37;12.07;;;;;;;2.46;80.67;98695.75;4978701;28;20196;-76
2021/01/23 07:09:04;;;;;;;14.17;12.77;;;;;;;2.50;81.10;98686.25;4979777;28;20736;-77
2021/01/23 07:11:31;;;;;;;12.00;10.90;;;;;;;2.51;80.51;98677.66;4982107;28;20218;-77
2021/01/23 07:14:05;;;;;;;12.27;11.07;;;;;;;2.45;81.18;98682.88;4984723;28;20204;-77
2021/01/23 07:16:34;;;;;;;11.33;10.33;;;;;;;2.48;80.48;98673.41;4982147;28;20226;-77
2021/01/23 07:19:01;;;;;;;11.83;10.80;;;;;;;2.47;80.47;98671.69;4986786;28;20239;-77
2021/01/23 07:21:30;;;;;;;11.73;10.63;;;;;;;2.43;80.83;98667.47;4984157;28;20222;-77
2021/01/23 07:23:57;;;;;;;11.53;10.43;;;;;;;2.39;81.32;98663.22;4985796;28;20856;-77
2021/01/23 07:26:23;;;;;;;14.27;10.30;;;;;;;2.42;80.90;98655.47;4984870;28;20207;-77
2021/01/23 07:28:51;;;;;;;10.60;9.67;;;;;;;2.43;81.44;98651.16;4983817;28;20219;-77
2021/01/23 07:31:22;;;;;;;11.00;9.63;;;;;;;2.40;81.02;98654.66;4983649;28;20205;-77
2021/01/23 07:33:48;;;;;;;11.10;10.07;;;;;;;2.38;80.69;98654.66;4984802;28;20199;-77
2021/01/23 07:36:30;;;;;;;10.93;9.93;;;;;;;2.37;81.04;98644.38;4979076;28;20250;-77
2021/01/23 07:38:56;;;;;;;10.83;9.83;;;;;;;2.32;81.42;98643.56;4978309;28;20783;-77
2021/01/23 07:41:22;;;;;;;10.53;9.60;;;;;;;2.27;81.07;98648.81;4981579;28;20246;-77
2021/01/23 07:43:48;;;;;;;12.37;10.13;;;;;;;2.24;81.95;98642.84;4982597;28;20587;-77
2021/01/23 07:46:16;;;;;;;13.57;10.43;;;;;;;2.28;80.93;98637.66;4983161;28;20203;-77
2021/01/23 07:48:42;;;;;;;10.43;9.53;;;;;;;2.35;81.19;98644.38;4982252;28;20227;-77
2021/01/23 07:51:08;;;;;;;9.80;8.80;;;;;;;2.37;81.00;98634.91;4981355;28;20200;-77
2021/01/23 07:53:34;;;;;;;11.90;10.60;;;;;;;2.35;80.83;98630.69;4979456;28;20206;-77
2021/01/23 07:56:00;;;;;;;10.00;9.13;;;;;;;2.35;80.99;98628.94;4981519;28;20204;-77
2021/01/23 07:58:26;;;;;;;12.90;11.60;;;;;;;2.35;80.33;98617.81;4985100;28;20799;-77
2021/01/23 08:00:52;;;;;;;12.70;11.40;;;;;;;2.32;81.15;98618.72;4981605;28;20223;-77
2021/01/23 08:03:34;;;;;;;14.33;13.03;;;;;;;2.39;81.06;98624.59;4982865;28;20663;-77
2021/01/23 08:06:00;;;;;;;15.67;12.83;;;;;;;2.42;80.63;98621.13;4986664;28;20211;-79
2021/01/23 08:08:29;;;;;;;14.93;13.40;;;;;;;2.46;80.38;98626.22;4985201;28;20215;-76
2021/01/23 08:10:56;;;;;;;15.50;13.80;;;;;;;2.49;80.36;98633.03;4985459;28;20235;-76
2021/01/23 08:13:25;;;;;;;14.10;12.70;;;;;;;2.50;81.02;98630.44;4984299;28;20580;-76
2021/01/23 08:15:51;;;;;;;14.53;12.77;;;;;;;2.54;81.12;98637.25;4986577;28;20286;-76
2021/01/23 08:18:18;;;;;;;13.30;12.10;;;;;;;2.53;81.66;98629.53;4977981;28;20232;-76
2021/01/23 08:20:45;;;;;;;13.93;12.30;;;;;;;2.57;81.44;98631.19;4991255;28;20751;-76
2021/01/23 08:23:11;;;;;;;14.53;13.13;;;;;;;2.54;81.47;98633.84;4983050;28;20298;-76
2021/01/23 08:25:45;;;;;;;12.37;11.27;;;;;;;2.56;80.49;98632.94;4993333;28;20258;-77
2021/01/23 08:28:12;;;;;;;13.17;11.97;;;;;;;2.56;80.34;98632.94;4982686;28;21524;-76
2021/01/23 08:30:38;;;;;;;13.90;12.50;;;;;;;2.58;80.21;98641.47;4994654;28;20204;-76
2021/01/23 08:33:05;;;;;;;13.23;12.00;;;;;;;2.52;80.81;98641.56;4981669;28;20203;-76
2021/01/23 08:35:34;;;;;;;14.17;12.80;;;;;;;2.61;81.01;98635.41;4995417;28;20211;-76
2021/01/23 08:38:01;;;;;;;12.30;11.10;;;;;;;2.68;79.90;98638.75;4981530;28;20235;-76
2021/01/23 08:40:27;;;;;;;12.87;11.73;;;;;;;2.74;80.29;98625.78;4990722;28;20666;-76
2021/01/23 08:42:53;;;;;;;14.57;12.90;;;;;;;2.78;79.64;98624.84;4990475;28;20219;-76
2021/01/23 08:45:21;;;;;;;14.43;12.93;;;;;;;2.82;79.83;98631.66;4985988;28;20208;-76
2021/01/23 08:47:47;;;;;;;16.80;15.13;;;;;;;2.88;79.42;98622.97;4972576;28;20204;-76
2021/01/23 08:50:13;;;;;;;15.87;14.43;;;;;;;2.90;78.99;98629.78;4993865;28;20265;-76
2021/01/23 08:52:39;;;;;;;15.27;13.77;;;;;;;2.96;79.38;98621.94;4973004;28;20204;-76
2021/01/23 08:55:07;;;;;;;11.53;10.43;;;;;;;2.95;79.28;98621.97;4988230;28;20354;-76
2021/01/23 08:57:33;;;;;;;11.83;10.73;;;;;;;2.98;78.80;98617.63;4976503;28;20227;-76
2021/01/23 08:59:59;;;;;;;13.73;12.40;;;;;;;2.95;79.39;98616.81;4990510;28;20224;-76
2021/01/23 09:02:25;;;;;;;14.03;11.57;;;;;;;2.94;78.28;98620.28;4983588;28;20200;-76
2021/01/23 09:04:51;;;;;;;11.30;10.20;;;;;;;2.89;77.80;98628.06;4990610;28;20631;-76
2021/01/23 09:07:18;;;;;;;14.03;11.73;;;;;;;3.02;77.77;98633.03;4978696;28;20287;-76
2021/01/23 09:09:43;;;;;;;13.87;10.93;;;;;;;3.08;77.27;98625.19;4994235;28;20281;-75
2021/01/23 09:12:10;;;;;;;13.30;12.00;;;;;;;2.98;76.74;98633.09;4991921;28;20722;-76
2021/01/23 09:14:36;;;;;;;13.73;11.30;;;;;;;3.11;77.53;98633.72;4994826;28;20215;-76
2021/01/23 09:17:02;;;;;;;12.47;11.17;;;;;;;3.25;77.56;98630.03;4985966;28;20306;-76
2021/01/23 09:19:28;;;;;;;12.40;11.10;;;;;;;3.35;76.94;98642.75;4988838;28;20294;-76
2021/01/23 09:21:54;;;;;;;10.83;9.83;;;;;;;3.38;76.65;98644.41;4982844;28;20208;-76
2021/01/23 09:24:20;;;;;;;11.73;9.90;;;;;;;3.29;75.41;98644.56;4976408;28;20259;-76
2021/01/23 09:26:46;;;;;;;10.90;9.90;;;;;;;3.35;76.29;98650.47;4990731;28;20207;-76
2021/01/23 09:29:13;;;;;;;10.13;9.23;;;;;;;3.45;76.66;98652.84;5000183;28;20232;-76
2021/01/23 09:31:39;;;;;;;11.10;9.40;;;;;;;3.46;76.12;98646.84;4994808;28;20203;-75
2021/01/23 09:34:05;;;;;;;10.27;9.27;;;;;;;3.44;76.80;98646.84;5001066;28;20278;-74
2021/01/23 09:36:32;;;;;;;10.13;9.17;;;;;;;3.56;76.40;98656.94;4994497;28;20689;-75
2021/01/23 09:38:58;;;;;;;10.37;9.37;;;;;;;3.49;74.53;98654.50;4999671;28;20223;-75
2021/01/23 09:41:24;;;;;;;9.43;8.63;;;;;;;3.56;74.01;98645.78;4994542;28;20208;-75
2021/01/23 09:43:50;;;;;;;13.23;12.23;;;;;;;3.55;74.31;98649.25;4999972;28;20218;-74
2021/01/23 09:46:17;;;;;;;12.53;10.23;;;;;;;3.65;74.52;98647.31;4994354;28;20199;-75
2021/01/23 09:48:42;;;;;;;9.27;8.50;;;;;;;3.70;75.44;98648.09;4986360;28;20256;-75
2021/01/23 09:51:08;;;;;;;10.00;9.00;;;;;;;3.76;74.55;98653.97;4995193;28;20208;-75
2021/01/23 09:53:34;;;;;;;9.90;8.27;;;;;;;3.76;74.51;98651.38;4997233;28;20206;-75
2021/01/23 09:56:00;;;;;;;10.37;9.10;;;;;;;3.75;73.62;98649.69;4996093;28;20270;-74
2021/01/23 09:58:26;;;;;;;9.13;8.23;;;;;;;3.83;75.02;98646.97;4997308;28;20238;-74
2021/01/23 10:00:52;;;;;;;8.70;7.77;;;;;;;3.84;72.78;98633.16;4997520;28;20214;-74
2021/01/23 10:03:19;;;;;;;8.43;7.07;;;;;;;3.77;71.56;98636.75;4995090;28;20245;-75
2021/01/23 10:05:45;;;;;;;8.50;7.73;;;;;;;3.81;72.71;98640.13;4998540;28;20201;-74
2021/01/23 10:08:11;;;;;;;10.40;7.37;;;;;;;3.78;70.88;98634.13;4993347;28;20298;-74
2021/01/23 10:10:37;;;;;;;39.73;35.50;;;;;;;3.70;71.37;98641.19;4999045;28;20211;-74
2021/01/23 10:13:03;;;;;;;10.37;9.37;;;;;;;3.75;70.79;98638.53;4994267;28;20209;-74
2021/01/23 10:15:32;;;;;;;11.07;10.07;;;;;;;3.93;71.73;98637.31;5000186;28;20671;-74
2021/01/23 10:17:58;;;;;;;8.30;7.43;;;;;;;4.06;73.09;98628.38;4993029;28;20730;-74
2021/01/23 10:20:25;;;;;;;8.87;8.07;;;;;;;4.16;74.01;98629.91;4999505;28;20211;-75
2021/01/23 10:22:51;;;;;;;10.20;9.33;;;;;;;4.17;72.08;98623.00;4993742;28;20204;-74
2021/01/23 10:25:17;;;;;;;7.73;6.83;;;;;;;4.11;68.93;98628.31;4998660;28;20261;-74
2021/01/23 10:27:43;;;;;;;9.50;8.50;;;;;;;4.20;70.29;98624.66;4993807;28;20749;-75
2021/01/23 10:30:10;;;;;;;7.43;6.67;;;;;;;4.24;68.97;98621.13;4998983;28;20208;-75
2021/01/23 10:32:36;;;;;;;7.50;6.80;;;;;;;4.35;69.50;98624.31;4993760;28;20200;-75
2021/01/23 10:35:03;;;;;;;8.60;6.93;;;;;;;4.47;69.44;98618.84;4998498;28;20608;-75
2021/01/23 10:37:29;;;;;;;41.83;37.50;;;;;;;4.46;68.10;98614.59;4993286;28;20730;-74
2021/01/23 10:39:55;;;;;;;24.93;22.93;;;;;;;4.55;68.79;98613.50;4987737;28;20294;-75
2021/01/23 10:42:21;;;;;;;20.77;19.40;;;;;;;4.52;68.20;98606.69;4985405;28;20722;-75
2021/01/23 10:44:47;;;;;;;10.93;9.83;;;;;;;4.67;68.88;98614.94;4985539;28;20228;-75
2021/01/23 10:47:13;;;;;;;7.73;6.97;;;;;;;4.63;66.23;98601.25;4985029;28;20204;-75
2021/01/23 10:49:39;;;;;;;7.40;6.70;;;;;;;4.57;66.89;98603.97;4985554;28;20729;-75
2021/01/23 10:52:05;;;;;;;6.73;6.10;;;;;;;4.65;68.22;98604.66;4985823;28;20207;-75
2021/01/23 10:54:32;;;;;;;8.00;6.23;;;;;;;4.64;67.23;98597.78;4984524;28;20213;-75
2021/01/23 10:56:58;;;;;;;6.37;5.77;;;;;;;4.65;66.94;98583.97;4984458;28;20222;-75
2021/01/23 10:59:24;;;;;;;8.77;6.07;;;;;;;4.75;68.40;98589.75;4984637;28;20257;-76
2021/01/23 11:01:50;;;;;;;6.90;6.20;;;;;;;4.78;67.36;98585.38;4986386;28;20283;-76
2021/01/23 11:04:16;;;;;;;6.33;5.70;;;;;;;4.62;65.80;98584.06;4984472;28;20266;-76
2021/01/23 11:06:42;;;;;;;7.40;6.63;;;;;;;4.67;67.91;98582.19;4985074;28;20578;-76
2021/01/23 11:09:08;;;;;;;6.83;6.20;;;;;;;4.50;67.15;98585.22;4984590;28;20247;-76
2021/01/23 11:11:35;;;;;;;7.10;6.37;;;;;;;4.51;67.99;98573.13;4984515;28;20685;-76
2021/01/23 11:14:01;;;;;;;7.17;6.10;;;;;;;4.57;68.23;98576.41;4985145;28;20204;-76
2021/01/23 11:16:27;;;;;;;6.70;6.10;;;;;;;4.59;67.86;98581.53;4985028;28;20208;-76
2021/01/23 11:18:54;;;;;;;9.00;8.17;;;;;;;4.66;67.60;98569.31;4984399;28;20227;-76
2021/01/23 11:21:21;;;;;;;14.97;13.73;;;;;;;4.72;67.43;98572.59;4985501;28;20253;-76
2021/01/23 11:23:47;;;;;;;18.03;16.70;;;;;;;4.63;68.40;98570.25;4985143;28;20206;-75
2021/01/23 11:26:13;;;;;;;9.07;8.33;;;;;;;4.63;67.80;98566.81;4985967;28;20221;-76
2021/01/23 11:28:39;;;;;;;10.77;9.80;;;;;;;4.56;68.27;98556.63;4982076;28;20577;-75
2021/01/23 11:31:06;;;;;;;8.30;7.50;;;;;;;4.61;68.62;98559.09;4980135;28;20199;-76
2021/01/23 11:33:32;;;;;;;8.93;8.13;;;;;;;4.75;69.13;98553.56;4979583;28;20582;-76